ADDS METAR Data INFO
IDs: Format: Raw Decoded Include TAF

Data at: 2008 UTC 19 Oct 2017

KPWK 191952Z 10006KT 10SM CLR 19/M03 A3017 RMK AO2 SLP216 T01941028
KPWK 191852Z 14003KT 10SM CLR 20/M03 A3018 RMK AO2 SLP220 T02001033
KPWK 191752Z 00000KT 10SM CLR 20/M04 A3019 RMK AO2 SLP222 T02001039 10200 20100 50001
KPWK 191652Z 00000KT 10SM CLR 18/M03 A3021 RMK AO2 SLP227 T01831033
KPWK 191552Z 02005KT 10SM CLR 18/M02 A3020 RMK AO2 SLP224 T01831017
KPWK 191452Z 36004KT 10SM CLR 17/01 A3019 RMK AO2 SLP221 T01670011 51024
KPWK 191352Z 00000KT 10SM CLR 14/07 A3017 RMK AO2 SLP216 T01440067
KPWK 191252Z 00000KT 10SM CLR 11/08 A3014 RMK AO2 SLP205 T01110083
KPWK 191152Z 00000KT 10SM CLR 11/08 A3012 RMK AO2 SLP198 T01060078 10161 20106 51022
KPWK 191052Z 23003KT 10SM CLR 12/08 A3009 RMK AO2 SLP189 T01220083
KPWK 190952Z AUTO 25004KT 10SM CLR 13/08 A3008 RMK AO2 SLP183 T01330083
KPWK 190852Z AUTO 23005KT 10SM CLR 13/08 A3005 RMK AO2 SLP174 T01330083 53006
KPWK 190752Z AUTO 22005KT 10SM CLR 14/08 A3004 RMK AO2 SLP172 T01390083
KPWK 190652Z AUTO 22007KT 10SM CLR 16/08 A3003 RMK AO2 SLP167 T01560078
KPWK 190552Z AUTO 21008KT 10SM CLR 16/08 A3003 RMK AO2 SLP167 T01610078 10194 20161 402220089 58008
KPWK 190452Z AUTO 22007G16KT 10SM CLR 17/07 A3004 RMK AO2 SLP171 T01670072
KPWK 190352Z AUTO 21007G15KT 10SM CLR 18/07 A3006 RMK AO2 SLP177 T01780072
KPWK 190252Z 21008KT 10SM CLR 18/07 A3006 RMK AO2 SLP176 T01780067 53006
KPWK 190152Z 20010KT 10SM CLR 18/06 A3004 RMK AO2 SLP171 T01830061
KPWK 190052Z 19012KT 10SM CLR 19/06 A3003 RMK AO2 SLP169 T01890056
KPWK 182352Z 20008KT 10SM CLR 19/06 A3004 RMK AO2 SLP171 T01940056 10222 20194 53002
KPWK 182252Z 20015G21KT 10SM CLR 21/05 A3002 RMK AO2 PK WND 19028/2202 SLP164 T02060050
KPWK 182152Z 19014G23KT 10SM CLR 22/05 A3002 RMK AO2 PK WND 19026/2136 SLP166 T02170050
KPWK 182052Z 18017G22KT 10SM CLR 22/06 A3003 RMK AO2 PK WND 18026/2030 SLP168 T02170061 57023
KPWK 181952Z 21014G24KT 10SM CLR 22/06 A3006 RMK AO2 SLP176 T02170061
KPWK 181852Z 19016KT 10SM CLR 21/07 A3007 RMK AO2 SLP182 T02110067
KPWK 181752Z 19016G21KT 10SM CLR 21/07 A3010 RMK AO2 SLP191 T02060067 10206 20089 58018
KPWK 181652Z 18016G21KT 10SM CLR 19/07 A3012 RMK AO2 SLP199 T01940067
KPWK 181552Z 20009KT 10SM CLR 17/07 A3014 RMK AO2 SLP206 T01720072
KPWK 181452Z 19010KT 10SM CLR 15/07 A3015 RMK AO2 SLP210 T01500067 58003
KPWK 181352Z 20010KT 10SM CLR 13/07 A3017 RMK AO2 SLP216 T01280067
KPWK 181252Z 19007KT 10SM CLR 11/06 A3016 RMK AO2 SLP215 T01060061
KPWK 181152Z 19006KT 10SM CLR 09/06 A3016 RMK AO2 SLP214 7//// T00890056 10139 20089 50002
KPWK 181052Z AUTO 18006KT 10SM CLR 09/06 A3016 RMK AO2 SLP214 T00940056
KPWK 180952Z AUTO 16005KT 10SM CLR 09/06 A3016 RMK AO2 SLP213 T00940056
KPWK 180852Z AUTO 18004KT 10SM CLR 10/05 A3016 RMK AO2 SLP211 T01000050 55000